sensor_id;sensor_type;location;lat;lon;timestamp;P1;durP1;ratioP1;P2;durP2;ratioP2
26413;SDS011;14108;53.668;10.288;2022-07-06T00:01:57;4.15;;;1.55;;
26413;SDS011;14108;53.668;10.288;2022-07-06T00:04:25;6.50;;;1.98;;
26413;SDS011;14108;53.668;10.288;2022-07-06T00:06:52;6.62;;;1.67;;
26413;SDS011;14108;53.668;10.288;2022-07-06T00:09:19;5.43;;;1.55;;
26413;SDS011;14108;53.668;10.288;2022-07-06T00:11:47;6.10;;;1.65;;
26413;SDS011;14108;53.668;10.288;2022-07-06T00:14:14;6.47;;;1.58;;
26413;SDS011;14108;53.668;10.288;2022-07-06T00:16:42;4.53;;;1.83;;
26413;SDS011;14108;53.668;10.288;2022-07-06T00:19:09;4.28;;;1.30;;
26413;SDS011;14108;53.668;10.288;2022-07-06T00:21:37;3.30;;;1.52;;
26413;SDS011;14108;53.668;10.288;2022-07-06T00:24:04;7.55;;;2.10;;
26413;SDS011;14108;53.668;10.288;2022-07-06T00:26:32;4.43;;;1.30;;
26413;SDS011;14108;53.668;10.288;2022-07-06T00:29:00;6.22;;;1.75;;
26413;SDS011;14108;53.668;10.288;2022-07-06T00:31:27;3.37;;;1.40;;
26413;SDS011;14108;53.668;10.288;2022-07-06T00:33:54;3.85;;;1.62;;
26413;SDS011;14108;53.668;10.288;2022-07-06T00:36:22;3.37;;;1.20;;
26413;SDS011;14108;53.668;10.288;2022-07-06T00:38:49;6.70;;;1.67;;
26413;SDS011;14108;53.668;10.288;2022-07-06T00:41:17;2.30;;;1.80;;
26413;SDS011;14108;53.668;10.288;2022-07-06T00:43:48;4.12;;;1.17;;
26413;SDS011;14108;53.668;10.288;2022-07-06T00:46:17;5.47;;;1.67;;
26413;SDS011;14108;53.668;10.288;2022-07-06T00:48:45;4.15;;;1.62;;
26413;SDS011;14108;53.668;10.288;2022-07-06T00:51:12;5.93;;;2.20;;
26413;SDS011;14108;53.668;10.288;2022-07-06T00:53:41;5.30;;;1.40;;
26413;SDS011;14108;53.668;10.288;2022-07-06T00:56:09;4.55;;;1.55;;
26413;SDS011;14108;53.668;10.288;2022-07-06T00:58:37;6.05;;;1.33;;
26413;SDS011;14108;53.668;10.288;2022-07-06T01:01:05;4.03;;;1.70;;
26413;SDS011;14108;53.668;10.288;2022-07-06T01:03:32;5.35;;;1.73;;
26413;SDS011;14108;53.668;10.288;2022-07-06T01:06:00;2.12;;;1.40;;
26413;SDS011;14108;53.668;10.288;2022-07-06T01:08:28;3.40;;;1.60;;
26413;SDS011;14108;53.668;10.288;2022-07-06T01:10:56;6.37;;;1.65;;
26413;SDS011;14108;53.668;10.288;2022-07-06T01:13:23;3.95;;;1.45;;
26413;SDS011;14108;53.668;10.288;2022-07-06T01:15:52;4.80;;;1.80;;
26413;SDS011;14108;53.668;10.288;2022-07-06T01:18:19;4.80;;;1.55;;
26413;SDS011;14108;53.668;10.288;2022-07-06T01:20:47;4.15;;;1.33;;
26413;SDS011;14108;53.668;10.288;2022-07-06T01:23:15;4.72;;;1.70;;
26413;SDS011;14108;53.668;10.288;2022-07-06T01:25:42;6.80;;;1.77;;
26413;SDS011;14108;53.668;10.288;2022-07-06T01:28:09;3.00;;;1.73;;
26413;SDS011;14108;53.668;10.288;2022-07-06T01:30:37;3.87;;;1.45;;
26413;SDS011;14108;53.668;10.288;2022-07-06T01:33:04;5.03;;;1.80;;
26413;SDS011;14108;53.668;10.288;2022-07-06T01:35:32;4.53;;;1.67;;
26413;SDS011;14108;53.668;10.288;2022-07-06T01:38:01;2.67;;;1.33;;
26413;SDS011;14108;53.668;10.288;2022-07-06T01:40:29;5.45;;;1.75;;
26413;SDS011;14108;53.668;10.288;2022-07-06T01:42:56;3.22;;;1.30;;
26413;SDS011;14108;53.668;10.288;2022-07-06T01:45:24;3.50;;;1.50;;
26413;SDS011;14108;53.668;10.288;2022-07-06T01:47:51;3.35;;;1.40;;
26413;SDS011;14108;53.668;10.288;2022-07-06T01:50:19;4.37;;;1.65;;
26413;SDS011;14108;53.668;10.288;2022-07-06T01:52:46;2.72;;;1.58;;
26413;SDS011;14108;53.668;10.288;2022-07-06T01:55:14;4.35;;;2.00;;
26413;SDS011;14108;53.668;10.288;2022-07-06T01:57:41;5.57;;;1.75;;
26413;SDS011;14108;53.668;10.288;2022-07-06T02:00:09;7.57;;;1.80;;
26413;SDS011;14108;53.668;10.288;2022-07-06T02:02:37;9.88;;;1.75;;
26413;SDS011;14108;53.668;10.288;2022-07-06T02:05:05;5.35;;;1.75;;
26413;SDS011;14108;53.668;10.288;2022-07-06T02:07:33;5.00;;;1.70;;
26413;SDS011;14108;53.668;10.288;2022-07-06T02:10:00;3.47;;;1.52;;
26413;SDS011;14108;53.668;10.288;2022-07-06T02:12:29;6.80;;;1.67;;
26413;SDS011;14108;53.668;10.288;2022-07-06T02:14:56;7.50;;;1.90;;
26413;SDS011;14108;53.668;10.288;2022-07-06T02:17:23;7.47;;;1.80;;
26413;SDS011;14108;53.668;10.288;2022-07-06T02:19:51;3.10;;;1.27;;
26413;SDS011;14108;53.668;10.288;2022-07-06T02:22:18;3.60;;;1.60;;
26413;SDS011;14108;53.668;10.288;2022-07-06T02:24:46;8.20;;;1.87;;
26413;SDS011;14108;53.668;10.288;2022-07-06T02:27:13;5.40;;;1.60;;
26413;SDS011;14108;53.668;10.288;2022-07-06T02:29:41;3.42;;;1.10;;
26413;SDS011;14108;53.668;10.288;2022-07-06T02:32:08;2.45;;;1.10;;
26413;SDS011;14108;53.668;10.288;2022-07-06T02:34:36;2.28;;;0.90;;
26413;SDS011;14108;53.668;10.288;2022-07-06T02:37:04;3.55;;;1.00;;
26413;SDS011;14108;53.668;10.288;2022-07-06T02:39:32;1.73;;;0.88;;
26413;SDS011;14108;53.668;10.288;2022-07-06T02:41:59;2.70;;;0.80;;
26413;SDS011;14108;53.668;10.288;2022-07-06T02:44:27;2.87;;;1.02;;
26413;SDS011;14108;53.668;10.288;2022-07-06T02:46:54;3.05;;;0.80;;
26413;SDS011;14108;53.668;10.288;2022-07-06T02:49:21;1.15;;;0.70;;
26413;SDS011;14108;53.668;10.288;2022-07-06T02:51:49;3.25;;;0.77;;
26413;SDS011;14108;53.668;10.288;2022-07-06T02:54:16;1.40;;;0.77;;
26413;SDS011;14108;53.668;10.288;2022-07-06T02:56:44;1.77;;;0.90;;
26413;SDS011;14108;53.668;10.288;2022-07-06T02:59:16;1.47;;;0.90;;
26413;SDS011;14108;53.668;10.288;2022-07-06T03:01:44;2.67;;;0.75;;
26413;SDS011;14108;53.668;10.288;2022-07-06T03:04:11;2.92;;;0.70;;
26413;SDS011;14108;53.668;10.288;2022-07-06T03:06:38;2.35;;;1.08;;
26413;SDS011;14108;53.668;10.288;2022-07-06T03:09:06;3.80;;;1.20;;
26413;SDS011;14108;53.668;10.288;2022-07-06T03:11:33;2.78;;;0.90;;
26413;SDS011;14108;53.668;10.288;2022-07-06T03:14:02;2.67;;;1.40;;
26413;SDS011;14108;53.668;10.288;2022-07-06T03:16:29;2.22;;;0.70;;
26413;SDS011;14108;53.668;10.288;2022-07-06T03:18:57;2.80;;;0.75;;
26413;SDS011;14108;53.668;10.288;2022-07-06T03:21:24;5.05;;;1.45;;
26413;SDS011;14108;53.668;10.288;2022-07-06T03:23:52;3.20;;;1.02;;
26413;SDS011;14108;53.668;10.288;2022-07-06T03:26:19;2.35;;;1.25;;
26413;SDS011;14108;53.668;10.288;2022-07-06T03:28:47;6.05;;;1.25;;
26413;SDS011;14108;53.668;10.288;2022-07-06T03:31:14;4.15;;;0.95;;
26413;SDS011;14108;53.668;10.288;2022-07-06T03:33:42;4.00;;;1.42;;
26413;SDS011;14108;53.668;10.288;2022-07-06T03:36:09;4.75;;;1.30;;
26413;SDS011;14108;53.668;10.288;2022-07-06T03:38:37;2.47;;;1.23;;
26413;SDS011;14108;53.668;10.288;2022-07-06T03:41:04;2.60;;;1.30;;
26413;SDS011;14108;53.668;10.288;2022-07-06T03:43:32;2.33;;;1.00;;
26413;SDS011;14108;53.668;10.288;2022-07-06T03:45:59;4.68;;;1.23;;
26413;SDS011;14108;53.668;10.288;2022-07-06T03:48:27;3.10;;;1.00;;
26413;SDS011;14108;53.668;10.288;2022-07-06T03:50:54;4.78;;;1.15;;
26413;SDS011;14108;53.668;10.288;2022-07-06T03:53:22;4.15;;;1.60;;
26413;SDS011;14108;53.668;10.288;2022-07-06T03:55:50;2.62;;;0.90;;
26413;SDS011;14108;53.668;10.288;2022-07-06T03:58:37;2.70;;;1.37;;
26413;SDS011;14108;53.668;10.288;2022-07-06T04:01:04;2.50;;;0.98;;
26413;SDS011;14108;53.668;10.288;2022-07-06T04:03:32;4.78;;;1.35;;
26413;SDS011;14108;53.668;10.288;2022-07-06T04:05:59;3.17;;;1.25;;
26413;SDS011;14108;53.668;10.288;2022-07-06T04:08:27;2.85;;;1.30;;
26413;SDS011;14108;53.668;10.288;2022-07-06T04:10:54;1.73;;;1.10;;
26413;SDS011;14108;53.668;10.288;2022-07-06T04:13:22;2.72;;;1.10;;
26413;SDS011;14108;53.668;10.288;2022-07-06T04:15:51;3.28;;;1.10;;
26413;SDS011;14108;53.668;10.288;2022-07-06T04:18:18;2.33;;;1.42;;
26413;SDS011;14108;53.668;10.288;2022-07-06T04:23:33;3.15;;;1.20;;
26413;SDS011;14108;53.668;10.288;2022-07-06T04:26:00;4.87;;;1.40;;
26413;SDS011;14108;53.668;10.288;2022-07-06T04:28:28;3.97;;;1.23;;
26413;SDS011;14108;53.668;10.288;2022-07-06T04:30:55;4.32;;;1.30;;
26413;SDS011;14108;53.668;10.288;2022-07-06T04:33:22;2.83;;;1.40;;
26413;SDS011;14108;53.668;10.288;2022-07-06T04:35:50;5.85;;;1.60;;
26413;SDS011;14108;53.668;10.288;2022-07-06T04:38:18;4.55;;;1.35;;
26413;SDS011;14108;53.668;10.288;2022-07-06T04:40:45;2.62;;;1.23;;
26413;SDS011;14108;53.668;10.288;2022-07-06T04:43:13;3.87;;;1.30;;
26413;SDS011;14108;53.668;10.288;2022-07-06T04:45:40;5.30;;;1.30;;
26413;SDS011;14108;53.668;10.288;2022-07-06T04:48:08;3.55;;;1.30;;
26413;SDS011;14108;53.668;10.288;2022-07-06T04:50:35;3.90;;;1.20;;
26413;SDS011;14108;53.668;10.288;2022-07-06T04:53:03;3.65;;;1.30;;
26413;SDS011;14108;53.668;10.288;2022-07-06T04:55:30;5.32;;;1.30;;
26413;SDS011;14108;53.668;10.288;2022-07-06T04:57:59;3.42;;;1.40;;
26413;SDS011;14108;53.668;10.288;2022-07-06T05:03:01;6.03;;;1.48;;
26413;SDS011;14108;53.668;10.288;2022-07-06T05:05:29;2.75;;;1.10;;
26413;SDS011;14108;53.668;10.288;2022-07-06T05:07:57;3.92;;;1.30;;
26413;SDS011;14108;53.668;10.288;2022-07-06T05:10:24;4.70;;;1.20;;
26413;SDS011;14108;53.668;10.288;2022-07-06T05:12:51;2.65;;;1.33;;
26413;SDS011;14108;53.668;10.288;2022-07-06T05:15:21;5.90;;;1.60;;
26413;SDS011;14108;53.668;10.288;2022-07-06T05:17:48;4.40;;;1.50;;
26413;SDS011;14108;53.668;10.288;2022-07-06T05:20:16;2.53;;;1.20;;
26413;SDS011;14108;53.668;10.288;2022-07-06T05:22:43;3.53;;;1.15;;
26413;SDS011;14108;53.668;10.288;2022-07-06T05:25:11;4.45;;;1.40;;
26413;SDS011;14108;53.668;10.288;2022-07-06T05:27:38;2.70;;;1.80;;
26413;SDS011;14108;53.668;10.288;2022-07-06T05:30:07;6.47;;;1.65;;
26413;SDS011;14108;53.668;10.288;2022-07-06T05:32:36;3.00;;;1.30;;
26413;SDS011;14108;53.668;10.288;2022-07-06T05:35:04;5.93;;;1.30;;
26413;SDS011;14108;53.668;10.288;2022-07-06T05:37:33;4.62;;;1.30;;
26413;SDS011;14108;53.668;10.288;2022-07-06T05:40:00;8.40;;;1.58;;
26413;SDS011;14108;53.668;10.288;2022-07-06T05:42:28;4.78;;;1.58;;
26413;SDS011;14108;53.668;10.288;2022-07-06T05:44:55;2.80;;;1.48;;
26413;SDS011;14108;53.668;10.288;2022-07-06T05:47:23;4.05;;;1.50;;
26413;SDS011;14108;53.668;10.288;2022-07-06T05:50:09;6.03;;;1.27;;
26413;SDS011;14108;53.668;10.288;2022-07-06T05:52:40;5.50;;;1.73;;
26413;SDS011;14108;53.668;10.288;2022-07-06T05:55:10;5.35;;;1.92;;
26413;SDS011;14108;53.668;10.288;2022-07-06T05:57:38;6.93;;;2.42;;
26413;SDS011;14108;53.668;10.288;2022-07-06T06:00:08;3.37;;;1.30;;
26413;SDS011;14108;53.668;10.288;2022-07-06T06:02:37;2.62;;;1.20;;
26413;SDS011;14108;53.668;10.288;2022-07-06T06:05:06;3.58;;;1.40;;
26413;SDS011;14108;53.668;10.288;2022-07-06T06:07:35;6.47;;;2.50;;
26413;SDS011;14108;53.668;10.288;2022-07-06T06:10:04;5.70;;;1.42;;
26413;SDS011;14108;53.668;10.288;2022-07-06T06:12:34;4.12;;;1.52;;
26413;SDS011;14108;53.668;10.288;2022-07-06T06:15:02;4.20;;;1.67;;
26413;SDS011;14108;53.668;10.288;2022-07-06T06:17:30;6.25;;;2.17;;
26413;SDS011;14108;53.668;10.288;2022-07-06T06:19:59;3.87;;;1.17;;
26413;SDS011;14108;53.668;10.288;2022-07-06T06:22:26;3.37;;;1.37;;
26413;SDS011;14108;53.668;10.288;2022-07-06T06:24:54;4.15;;;1.27;;
26413;SDS011;14108;53.668;10.288;2022-07-06T06:27:21;6.65;;;1.80;;
26413;SDS011;14108;53.668;10.288;2022-07-06T06:29:49;5.65;;;1.20;;
26413;SDS011;14108;53.668;10.288;2022-07-06T06:32:16;3.42;;;1.10;;
26413;SDS011;14108;53.668;10.288;2022-07-06T06:34:44;3.12;;;1.30;;
26413;SDS011;14108;53.668;10.288;2022-07-06T06:37:11;2.75;;;1.30;;
26413;SDS011;14108;53.668;10.288;2022-07-06T06:39:39;5.93;;;1.52;;
26413;SDS011;14108;53.668;10.288;2022-07-06T06:42:06;5.00;;;1.20;;
26413;SDS011;14108;53.668;10.288;2022-07-06T06:44:34;4.93;;;1.70;;
26413;SDS011;14108;53.668;10.288;2022-07-06T06:47:02;5.93;;;1.30;;
26413;SDS011;14108;53.668;10.288;2022-07-06T06:49:29;6.57;;;1.70;;
26413;SDS011;14108;53.668;10.288;2022-07-06T06:51:57;2.42;;;1.15;;
26413;SDS011;14108;53.668;10.288;2022-07-06T06:54:24;4.20;;;1.58;;
26413;SDS011;14108;53.668;10.288;2022-07-06T06:56:52;3.33;;;1.10;;
26413;SDS011;14108;53.668;10.288;2022-07-06T06:59:19;3.60;;;1.30;;
26413;SDS011;14108;53.668;10.288;2022-07-06T07:01:46;6.35;;;2.17;;
26413;SDS011;14108;53.668;10.288;2022-07-06T07:04:14;5.57;;;1.30;;
26413;SDS011;14108;53.668;10.288;2022-07-06T07:06:42;4.37;;;1.12;;
26413;SDS011;14108;53.668;10.288;2022-07-06T07:09:09;6.53;;;1.23;;
26413;SDS011;14108;53.668;10.288;2022-07-06T07:11:37;5.62;;;1.42;;
26413;SDS011;14108;53.668;10.288;2022-07-06T07:14:04;4.47;;;1.92;;
26413;SDS011;14108;53.668;10.288;2022-07-06T07:16:32;3.83;;;1.27;;
26413;SDS011;14108;53.668;10.288;2022-07-06T07:18:59;5.30;;;1.67;;
26413;SDS011;14108;53.668;10.288;2022-07-06T07:21:27;4.00;;;1.27;;
26413;SDS011;14108;53.668;10.288;2022-07-06T07:23:54;4.75;;;1.25;;
26413;SDS011;14108;53.668;10.288;2022-07-06T07:26:22;3.47;;;1.25;;
26413;SDS011;14108;53.668;10.288;2022-07-06T07:28:49;4.28;;;0.98;;
26413;SDS011;14108;53.668;10.288;2022-07-06T07:31:16;6.28;;;1.73;;
26413;SDS011;14108;53.668;10.288;2022-07-06T07:33:44;3.90;;;0.75;;
26413;SDS011;14108;53.668;10.288;2022-07-06T07:36:11;1.23;;;0.90;;
26413;SDS011;14108;53.668;10.288;2022-07-06T07:38:39;4.47;;;1.23;;
26413;SDS011;14108;53.668;10.288;2022-07-06T07:41:07;6.53;;;1.37;;
26413;SDS011;14108;53.668;10.288;2022-07-06T07:43:37;3.62;;;1.45;;
26413;SDS011;14108;53.668;10.288;2022-07-06T07:46:04;5.18;;;1.52;;
26413;SDS011;14108;53.668;10.288;2022-07-06T07:48:34;4.47;;;1.00;;
26413;SDS011;14108;53.668;10.288;2022-07-06T07:51:02;2.03;;;1.02;;
26413;SDS011;14108;53.668;10.288;2022-07-06T07:53:29;4.55;;;1.40;;
26413;SDS011;14108;53.668;10.288;2022-07-06T07:55:57;3.67;;;1.40;;
26413;SDS011;14108;53.668;10.288;2022-07-06T07:58:24;3.83;;;1.45;;
26413;SDS011;14108;53.668;10.288;2022-07-06T08:00:52;5.50;;;1.77;;
26413;SDS011;14108;53.668;10.288;2022-07-06T08:03:20;4.45;;;1.15;;
26413;SDS011;14108;53.668;10.288;2022-07-06T08:05:47;5.10;;;1.58;;
26413;SDS011;14108;53.668;10.288;2022-07-06T08:08:16;4.32;;;1.27;;
26413;SDS011;14108;53.668;10.288;2022-07-06T08:10:43;5.10;;;1.48;;
26413;SDS011;14108;53.668;10.288;2022-07-06T08:13:11;4.12;;;1.70;;
26413;SDS011;14108;53.668;10.288;2022-07-06T08:15:40;3.17;;;1.15;;
26413;SDS011;14108;53.668;10.288;2022-07-06T08:18:08;11.38;;;1.62;;
26413;SDS011;14108;53.668;10.288;2022-07-06T08:20:36;4.72;;;1.40;;
26413;SDS011;14108;53.668;10.288;2022-07-06T08:23:04;6.97;;;1.40;;
26413;SDS011;14108;53.668;10.288;2022-07-06T08:25:31;7.50;;;1.12;;
26413;SDS011;14108;53.668;10.288;2022-07-06T08:27:59;5.25;;;1.60;;
26413;SDS011;14108;53.668;10.288;2022-07-06T08:30:27;4.62;;;1.35;;
26413;SDS011;14108;53.668;10.288;2022-07-06T08:32:57;6.85;;;1.70;;
26413;SDS011;14108;53.668;10.288;2022-07-06T08:35:24;3.33;;;1.15;;
26413;SDS011;14108;53.668;10.288;2022-07-06T08:37:52;3.12;;;1.23;;
26413;SDS011;14108;53.668;10.288;2022-07-06T08:40:19;3.83;;;1.20;;
26413;SDS011;14108;53.668;10.288;2022-07-06T08:42:48;4.05;;;1.45;;
26413;SDS011;14108;53.668;10.288;2022-07-06T08:45:20;2.50;;;1.27;;
26413;SDS011;14108;53.668;10.288;2022-07-06T08:47:49;3.30;;;1.45;;
26413;SDS011;14108;53.668;10.288;2022-07-06T08:50:18;3.75;;;1.00;;
26413;SDS011;14108;53.668;10.288;2022-07-06T08:52:46;5.70;;;1.30;;
26413;SDS011;14108;53.668;10.288;2022-07-06T08:55:14;2.30;;;1.00;;
26413;SDS011;14108;53.668;10.288;2022-07-06T08:57:45;4.53;;;0.95;;
26413;SDS011;14108;53.668;10.288;2022-07-06T09:00:14;3.87;;;1.30;;
26413;SDS011;14108;53.668;10.288;2022-07-06T09:02:42;5.55;;;1.35;;
26413;SDS011;14108;53.668;10.288;2022-07-06T09:05:10;3.50;;;1.00;;
26413;SDS011;14108;53.668;10.288;2022-07-06T09:07:40;4.10;;;1.05;;
26413;SDS011;14108;53.668;10.288;2022-07-06T09:10:09;2.42;;;0.90;;
26413;SDS011;14108;53.668;10.288;2022-07-06T09:12:36;3.55;;;1.00;;
26413;SDS011;14108;53.668;10.288;2022-07-06T09:15:05;3.08;;;0.95;;
26413;SDS011;14108;53.668;10.288;2022-07-06T09:17:37;2.37;;;0.82;;
26413;SDS011;14108;53.668;10.288;2022-07-06T09:20:07;2.95;;;0.73;;
26413;SDS011;14108;53.668;10.288;2022-07-06T09:22:35;3.60;;;1.20;;
26413;SDS011;14108;53.668;10.288;2022-07-06T09:25:04;3.05;;;0.90;;
26413;SDS011;14108;53.668;10.288;2022-07-06T09:27:37;1.67;;;0.73;;
26413;SDS011;14108;53.668;10.288;2022-07-06T09:30:06;2.17;;;0.73;;
26413;SDS011;14108;53.668;10.288;2022-07-06T09:32:38;3.15;;;0.95;;
26413;SDS011;14108;53.668;10.288;2022-07-06T09:35:07;4.60;;;0.98;;
26413;SDS011;14108;53.668;10.288;2022-07-06T09:37:45;2.17;;;0.93;;
26413;SDS011;14108;53.668;10.288;2022-07-06T09:40:16;1.85;;;0.70;;
26413;SDS011;14108;53.668;10.288;2022-07-06T09:42:44;1.85;;;0.80;;
26413;SDS011;14108;53.668;10.288;2022-07-06T09:45:12;3.25;;;0.93;;
26413;SDS011;14108;53.668;10.288;2022-07-06T09:47:46;1.08;;;0.50;;
26413;SDS011;14108;53.668;10.288;2022-07-06T09:50:15;3.30;;;0.62;;
26413;SDS011;14108;53.668;10.288;2022-07-06T09:52:53;1.15;;;0.47;;
26413;SDS011;14108;53.668;10.288;2022-07-06T09:55:22;3.33;;;0.95;;
26413;SDS011;14108;53.668;10.288;2022-07-06T09:57:53;2.03;;;0.60;;
26413;SDS011;14108;53.668;10.288;2022-07-06T10:00:21;1.05;;;0.50;;
26413;SDS011;14108;53.668;10.288;2022-07-06T10:02:49;1.90;;;0.85;;
26413;SDS011;14108;53.668;10.288;2022-07-06T10:05:17;1.58;;;0.47;;
26413;SDS011;14108;53.668;10.288;2022-07-06T10:07:52;2.33;;;0.43;;
26413;SDS011;14108;53.668;10.288;2022-07-06T10:10:22;0.82;;;0.50;;
26413;SDS011;14108;53.668;10.288;2022-07-06T10:12:52;2.62;;;0.60;;
26413;SDS011;14108;53.668;10.288;2022-07-06T10:15:22;0.50;;;0.40;;
26413;SDS011;14108;53.668;10.288;2022-07-06T10:17:51;1.95;;;0.50;;
26413;SDS011;14108;53.668;10.288;2022-07-06T10:20:20;1.83;;;0.60;;
26413;SDS011;14108;53.668;10.288;2022-07-06T10:22:48;2.58;;;0.60;;
26413;SDS011;14108;53.668;10.288;2022-07-06T10:25:16;2.20;;;0.60;;
26413;SDS011;14108;53.668;10.288;2022-07-06T10:27:45;1.42;;;0.45;;
26413;SDS011;14108;53.668;10.288;2022-07-06T10:30:14;2.87;;;0.60;;
26413;SDS011;14108;53.668;10.288;2022-07-06T10:32:42;1.65;;;0.50;;
26413;SDS011;14108;53.668;10.288;2022-07-06T10:35:12;2.47;;;0.62;;
26413;SDS011;14108;53.668;10.288;2022-07-06T10:37:40;3.12;;;0.85;;
26413;SDS011;14108;53.668;10.288;2022-07-06T10:40:09;1.62;;;0.60;;
26413;SDS011;14108;53.668;10.288;2022-07-06T10:45:52;1.20;;;0.60;;
26413;SDS011;14108;53.668;10.288;2022-07-06T10:48:20;3.15;;;0.57;;
26413;SDS011;14108;53.668;10.288;2022-07-06T10:50:49;3.75;;;1.17;;
26413;SDS011;14108;53.668;10.288;2022-07-06T10:53:21;1.90;;;0.80;;
26413;SDS011;14108;53.668;10.288;2022-07-06T10:55:50;2.58;;;0.73;;
26413;SDS011;14108;53.668;10.288;2022-07-06T10:58:34;2.08;;;0.35;;
26413;SDS011;14108;53.668;10.288;2022-07-06T11:01:06;2.10;;;0.70;;
26413;SDS011;14108;53.668;10.288;2022-07-06T11:03:35;3.50;;;0.80;;
26413;SDS011;14108;53.668;10.288;2022-07-06T11:06:09;2.83;;;0.60;;
26413;SDS011;14108;53.668;10.288;2022-07-06T11:08:49;1.23;;;0.50;;
26413;SDS011;14108;53.668;10.288;2022-07-06T11:11:18;3.30;;;0.68;;
26413;SDS011;14108;53.668;10.288;2022-07-06T11:13:48;1.33;;;0.60;;
26413;SDS011;14108;53.668;10.288;2022-07-06T11:16:17;2.55;;;0.75;;
26413;SDS011;14108;53.668;10.288;2022-07-06T11:18:47;1.48;;;0.40;;
26413;SDS011;14108;53.668;10.288;2022-07-06T11:21:19;1.83;;;0.45;;
26413;SDS011;14108;53.668;10.288;2022-07-06T11:23:48;3.28;;;0.70;;
26413;SDS011;14108;53.668;10.288;2022-07-06T11:26:17;1.37;;;0.50;;
26413;SDS011;14108;53.668;10.288;2022-07-06T11:28:45;3.62;;;0.77;;
26413;SDS011;14108;53.668;10.288;2022-07-06T11:31:14;1.33;;;0.60;;
26413;SDS011;14108;53.668;10.288;2022-07-06T11:33:44;2.03;;;0.65;;
26413;SDS011;14108;53.668;10.288;2022-07-06T11:36:13;5.72;;;0.80;;
26413;SDS011;14108;53.668;10.288;2022-07-06T11:38:42;3.17;;;0.60;;
26413;SDS011;14108;53.668;10.288;2022-07-06T11:41:10;4.85;;;0.90;;
26413;SDS011;14108;53.668;10.288;2022-07-06T11:43:40;1.20;;;0.40;;
26413;SDS011;14108;53.668;10.288;2022-07-06T11:46:20;2.10;;;0.60;;
26413;SDS011;14108;53.668;10.288;2022-07-06T11:48:49;2.83;;;0.70;;
26413;SDS011;14108;53.668;10.288;2022-07-06T11:51:18;1.80;;;0.70;;
26413;SDS011;14108;53.668;10.288;2022-07-06T11:53:47;5.28;;;0.70;;
26413;SDS011;14108;53.668;10.288;2022-07-06T11:56:17;4.03;;;0.82;;
26413;SDS011;14108;53.668;10.288;2022-07-06T11:58:47;2.25;;;0.60;;
26413;SDS011;14108;53.668;10.288;2022-07-06T12:01:16;2.53;;;0.77;;
26413;SDS011;14108;53.668;10.288;2022-07-06T12:03:43;6.25;;;1.10;;
26413;SDS011;14108;53.668;10.288;2022-07-06T12:06:16;4.10;;;0.90;;
26413;SDS011;14108;53.668;10.288;2022-07-06T12:08:45;1.83;;;0.73;;
26413;SDS011;14108;53.668;10.288;2022-07-06T12:11:18;5.12;;;0.80;;
26413;SDS011;14108;53.668;10.288;2022-07-06T12:16:15;3.35;;;0.70;;
26413;SDS011;14108;53.668;10.288;2022-07-06T12:18:43;4.32;;;1.33;;
26413;SDS011;14108;53.668;10.288;2022-07-06T12:21:14;4.78;;;1.00;;
26413;SDS011;14108;53.668;10.288;2022-07-06T12:23:43;4.97;;;0.70;;
26413;SDS011;14108;53.668;10.288;2022-07-06T12:26:12;1.05;;;0.60;;
26413;SDS011;14108;53.668;10.288;2022-07-06T12:28:41;4.00;;;0.60;;
26413;SDS011;14108;53.668;10.288;2022-07-06T12:31:10;4.25;;;0.57;;
26413;SDS011;14108;53.668;10.288;2022-07-06T12:33:37;2.30;;;0.50;;
26413;SDS011;14108;53.668;10.288;2022-07-06T12:36:09;4.75;;;0.60;;
26413;SDS011;14108;53.668;10.288;2022-07-06T12:38:43;3.08;;;0.65;;
26413;SDS011;14108;53.668;10.288;2022-07-06T12:41:24;4.78;;;0.93;;
26413;SDS011;14108;53.668;10.288;2022-07-06T12:44:00;3.17;;;0.95;;
26413;SDS011;14108;53.668;10.288;2022-07-06T12:46:32;3.03;;;0.75;;
26413;SDS011;14108;53.668;10.288;2022-07-06T12:49:02;2.75;;;0.68;;
26413;SDS011;14108;53.668;10.288;2022-07-06T12:51:52;1.90;;;0.43;;
26413;SDS011;14108;53.668;10.288;2022-07-06T12:54:25;2.92;;;0.60;;
26413;SDS011;14108;53.668;10.288;2022-07-06T12:57:04;3.78;;;0.73;;
26413;SDS011;14108;53.668;10.288;2022-07-06T12:59:38;3.00;;;0.50;;
26413;SDS011;14108;53.668;10.288;2022-07-06T13:02:08;3.95;;;0.68;;
26413;SDS011;14108;53.668;10.288;2022-07-06T13:04:36;3.17;;;0.80;;
26413;SDS011;14108;53.668;10.288;2022-07-06T13:07:04;4.05;;;0.62;;
26413;SDS011;14108;53.668;10.288;2022-07-06T13:09:32;1.70;;;0.50;;
26413;SDS011;14108;53.668;10.288;2022-07-06T13:11:59;3.87;;;0.95;;
26413;SDS011;14108;53.668;10.288;2022-07-06T13:14:27;1.60;;;0.40;;
26413;SDS011;14108;53.668;10.288;2022-07-06T13:16:54;4.20;;;0.70;;
26413;SDS011;14108;53.668;10.288;2022-07-06T13:19:22;1.50;;;0.55;;
26413;SDS011;14108;53.668;10.288;2022-07-06T13:21:49;1.48;;;0.30;;
26413;SDS011;14108;53.668;10.288;2022-07-06T13:24:17;4.18;;;0.70;;
26413;SDS011;14108;53.668;10.288;2022-07-06T13:26:44;3.78;;;0.98;;
26413;SDS011;14108;53.668;10.288;2022-07-06T13:29:12;5.07;;;0.70;;
26413;SDS011;14108;53.668;10.288;2022-07-06T13:31:39;1.48;;;0.50;;
26413;SDS011;14108;53.668;10.288;2022-07-06T13:34:07;3.10;;;0.68;;
26413;SDS011;14108;53.668;10.288;2022-07-06T13:36:35;2.20;;;0.62;;
26413;SDS011;14108;53.668;10.288;2022-07-06T13:39:03;2.53;;;0.85;;
26413;SDS011;14108;53.668;10.288;2022-07-06T13:41:30;1.58;;;0.60;;
26413;SDS011;14108;53.668;10.288;2022-07-06T13:43:58;1.67;;;0.52;;
26413;SDS011;14108;53.668;10.288;2022-07-06T13:46:26;2.83;;;0.52;;
26413;SDS011;14108;53.668;10.288;2022-07-06T13:48:54;1.20;;;0.47;;
26413;SDS011;14108;53.668;10.288;2022-07-06T13:51:22;3.03;;;0.55;;
26413;SDS011;14108;53.668;10.288;2022-07-06T13:53:50;1.87;;;0.55;;
26413;SDS011;14108;53.668;10.288;2022-07-06T13:56:17;1.40;;;0.40;;
26413;SDS011;14108;53.668;10.288;2022-07-06T13:58:45;2.33;;;0.50;;
26413;SDS011;14108;53.668;10.288;2022-07-06T14:01:12;3.92;;;0.60;;
26413;SDS011;14108;53.668;10.288;2022-07-06T14:03:40;4.57;;;0.50;;
26413;SDS011;14108;53.668;10.288;2022-07-06T14:06:08;2.05;;;0.60;;
26413;SDS011;14108;53.668;10.288;2022-07-06T14:08:36;3.55;;;0.62;;
26413;SDS011;14108;53.668;10.288;2022-07-06T14:11:06;4.37;;;0.55;;
26413;SDS011;14108;53.668;10.288;2022-07-06T14:13:34;3.22;;;0.55;;
26413;SDS011;14108;53.668;10.288;2022-07-06T14:16:03;1.15;;;0.43;;
26413;SDS011;14108;53.668;10.288;2022-07-06T14:18:31;1.48;;;0.37;;
26413;SDS011;14108;53.668;10.288;2022-07-06T14:20:59;2.40;;;0.50;;
26413;SDS011;14108;53.668;10.288;2022-07-06T14:23:26;1.27;;;0.13;;
26413;SDS011;14108;53.668;10.288;2022-07-06T14:25:55;3.17;;;0.50;;
26413;SDS011;14108;53.668;10.288;2022-07-06T14:28:23;2.85;;;0.32;;
26413;SDS011;14108;53.668;10.288;2022-07-06T14:30:50;4.62;;;0.50;;
26413;SDS011;14108;53.668;10.288;2022-07-06T14:33:18;4.78;;;0.73;;
26413;SDS011;14108;53.668;10.288;2022-07-06T14:35:46;1.58;;;1.00;;
26413;SDS011;14108;53.668;10.288;2022-07-06T14:38:17;2.08;;;0.85;;
26413;SDS011;14108;53.668;10.288;2022-07-06T14:40:45;1.77;;;0.55;;
26413;SDS011;14108;53.668;10.288;2022-07-06T14:43:14;2.12;;;0.50;;
26413;SDS011;14108;53.668;10.288;2022-07-06T14:45:43;2.47;;;0.70;;
26413;SDS011;14108;53.668;10.288;2022-07-06T14:48:11;3.25;;;0.52;;
26413;SDS011;14108;53.668;10.288;2022-07-06T14:50:38;3.95;;;0.47;;
26413;SDS011;14108;53.668;10.288;2022-07-06T14:53:06;4.10;;;0.70;;